Time;durP1;ratioP1;P1;durP2;ratioP2;P2;SDS_P1;SDS_P2;PMS_P1;PMS_P2;Temp;Humidity;BMP_temperature;BMP_pressure;BME280_temperature;BME280_humidity;BME280_pressure;Samples;Min_cycle;Max_cycle;Signal;HPM_P1;HPM_P2
2022/06/22 00:02:21;;;;;;;1.50;1.40;;;;;;;13.48;66.96;101281.66;5069964;28;20028;-80
2022/06/22 00:04:52;;;;;;;1.60;1.50;;;;;;;13.46;67.03;101288.66;5073711;28;20040;-79
2022/06/22 00:07:23;;;;;;;1.45;1.40;;;;;;;13.42;67.02;101287.84;5074649;28;20387;-80
2022/06/22 00:09:55;;;;;;;1.50;1.40;;;;;;;13.38;67.19;101286.16;5074496;28;20024;-80
2022/06/22 00:12:27;;;;;;;1.50;1.40;;;;;;;13.36;67.33;101285.31;5075019;28;20444;-80
2022/06/22 00:14:54;;;;;;;1.60;1.50;;;;;;;13.33;67.65;101280.19;5073984;28;20028;-80
2022/06/22 00:17:27;;;;;;;1.50;1.40;;;;;;;13.30;67.53;101270.66;5074908;28;20051;-80
2022/06/22 00:20:27;;;;;;;1.50;1.40;;;;;;;13.27;67.68;101262.94;5072728;28;20035;-80
2022/06/22 00:23:12;;;;;;;1.50;1.40;;;;;;;13.25;68.15;101262.09;5073223;28;20044;-80
2022/06/22 00:25:39;;;;;;;1.60;1.50;;;;;;;13.23;68.29;101246.47;5066239;28;20031;-79
2022/06/22 00:28:23;;;;;;;1.50;1.40;;;;;;;13.21;68.92;101248.25;5053137;28;20032;-80
2022/06/22 00:30:49;;;;;;;1.70;1.60;;;;;;;13.20;68.36;101256.09;5052407;28;20064;-80
2022/06/22 00:33:20;;;;;;;1.20;1.20;;;;;;;13.20;68.53;101261.31;5054509;28;20025;-80
2022/06/22 00:35:50;;;;;;;1.35;1.27;;;;;;;13.18;68.68;101263.06;5053683;28;20035;-80
2022/06/22 00:38:22;;;;;;;1.70;1.60;;;;;;;13.19;68.53;101270.88;5054672;28;20025;-80
2022/06/22 00:41:04;;;;;;;2.20;1.67;;;;;;;13.19;68.96;101255.25;5052766;28;20358;-81
2022/06/22 00:43:35;;;;;;;1.77;1.67;;;;;;;13.20;68.88;101258.69;5054408;28;20025;-80
2022/06/22 00:46:01;;;;;;;1.70;1.60;;;;;;;13.19;69.01;101250.03;5054484;28;20492;-81
2022/06/22 00:48:46;;;;;;;1.70;1.60;;;;;;;13.21;69.59;101255.22;5053388;28;20060;-80
2022/06/22 00:51:16;;;;;;;1.80;1.70;;;;;;;13.20;69.22;101261.31;5053437;28;20036;-80
2022/06/22 00:53:58;;;;;;;1.70;1.60;;;;;;;13.20;69.37;101269.13;5054284;28;20029;-81
2022/06/22 00:56:36;;;;;;;1.67;1.58;;;;;;;13.20;69.38;101264.78;5052892;28;20380;-80
2022/06/22 00:59:38;;;;;;;1.58;1.50;;;;;;;13.19;69.43;101254.38;5060531;28;20125;-80
2022/06/22 01:02:22;;;;;;;1.80;1.70;;;;;;;13.18;69.67;101252.66;5073337;28;20025;-81
2022/06/22 01:04:58;;;;;;;1.80;1.70;;;;;;;13.17;69.87;101254.41;5073300;28;20021;-80
2022/06/22 01:07:49;;;;;;;1.77;1.67;;;;;;;13.16;69.88;101251.84;5073668;28;20048;-80
2022/06/22 01:10:45;;;;;;;1.80;1.70;;;;;;;13.16;69.84;101244.03;5073341;28;20040;-80
2022/06/22 01:13:18;;;;;;;;;;;;;;;13.15;70.15;101239.72;5073599;28;20021;-80
2022/06/22 01:16:03;;;;;;;2.10;2.00;;;;;;;13.13;70.34;101242.31;5055276;28;20388;-80
2022/06/22 01:18:40;;;;;;;2.53;1.93;;;;;;;13.12;70.39;101262.31;5047802;28;20040;-80
2022/06/22 01:21:18;;;;;;;;;;;;;;;13.13;70.42;101269.25;5053481;28;20048;-80
2022/06/22 01:24:02;;;;;;;2.53;2.10;;;;;;;13.12;70.39;101280.56;5052020;28;19939;-80
2022/06/22 01:27:04;;;;;;;2.10;1.90;;;;;;;13.11;70.62;101275.41;5049393;28;20163;-80
2022/06/22 01:29:29;;;;;;;2.10;2.00;;;;;;;13.06;70.15;101272.84;5032998;28;20033;-80
2022/06/22 01:31:57;;;;;;;2.13;1.90;;;;;;;13.03;70.35;101270.31;5031968;28;20029;-80
2022/06/22 01:34:25;;;;;;;2.53;2.28;;;;;;;13.00;70.26;101267.75;5032768;28;20033;-80
2022/06/22 01:36:51;;;;;;;2.20;2.00;;;;;;;12.97;70.38;101262.59;5031812;28;20032;-80
2022/06/22 01:39:16;;;;;;;1.93;1.77;;;;;;;12.92;70.59;101249.66;5033092;28;20116;-80
2022/06/22 01:41:55;;;;;;;2.00;1.80;;;;;;;12.91;71.06;101244.50;5032636;28;20033;-80
2022/06/22 01:44:33;;;;;;;2.00;1.90;;;;;;;12.89;71.13;101235.84;5033184;28;20026;-80
2022/06/22 01:47:23;;;;;;;1.80;1.70;;;;;;;12.88;71.19;101227.19;5033465;28;20026;-81
2022/06/22 01:49:55;;;;;;;1.80;1.70;;;;;;;12.88;71.49;101223.72;5032124;28;20048;-81
2022/06/22 01:52:42;;;;;;;1.70;1.60;;;;;;;12.89;71.55;101231.47;5031753;28;20056;-81
2022/06/22 01:55:25;;;;;;;1.83;1.73;;;;;;;12.91;72.17;101239.28;5041685;28;20071;-80
2022/06/22 01:58:17;;;;;;;2.00;1.90;;;;;;;12.89;71.68;101236.69;5048150;28;20029;-80
2022/06/22 02:00:46;;;;;;;1.83;1.73;;;;;;;12.91;72.20;101244.50;5027790;28;20087;-81
2022/06/22 02:03:22;;;;;;;1.50;1.40;;;;;;;12.91;71.97;101234.91;5032566;28;20017;-81
2022/06/22 02:05:56;;;;;;;1.73;1.63;;;;;;;12.92;71.86;101228.81;5031254;28;20068;-81
2022/06/22 02:08:31;;;;;;;1.50;1.50;;;;;;;12.93;72.75;101234.91;5032940;28;20072;-81
2022/06/22 02:11:04;;;;;;;1.60;1.50;;;;;;;12.91;73.39;101234.06;5032077;28;20036;-81
2022/06/22 02:13:51;;;;;;;1.80;1.70;;;;;;;12.88;72.96;101232.41;5032286;28;20026;-81
2022/06/22 02:16:26;;;;;;;1.42;1.33;;;;;;;12.90;72.64;101232.34;5037018;28;20021;-80
2022/06/22 02:19:09;;;;;;;1.70;1.60;;;;;;;12.90;72.81;101238.41;5035130;28;20029;-80
2022/06/22 02:21:41;;;;;;;1.83;1.63;;;;;;;12.91;73.11;101236.69;5035555;28;20542;-80
2022/06/22 02:24:36;;;;;;;1.67;1.58;;;;;;;12.89;72.46;101236.69;5052157;28;20436;-80
2022/06/22 02:27:07;;;;;;;1.73;1.57;;;;;;;12.88;72.38;101240.22;5055074;28;20107;-80
2022/06/22 02:29:37;;;;;;;2.00;1.80;;;;;;;12.89;72.28;101241.91;5055143;28;20794;-81
2022/06/22 02:32:07;;;;;;;2.00;1.90;;;;;;;12.90;72.82;101224.53;5055576;28;20374;-81
2022/06/22 02:34:34;;;;;;;1.80;1.70;;;;;;;12.90;73.22;101211.50;5054357;28;20115;-80
2022/06/22 02:37:00;;;;;;;;;;;;;;;12.89;73.08;101205.44;5055235;28;20124;-80
2022/06/22 02:39:29;;;;;;;2.05;1.83;;;;;;;12.88;73.35;101203.75;5056288;28;20424;-80
2022/06/22 02:44:41;;;;;;;1.80;1.70;;;;;;;12.84;73.36;101194.25;5055208;28;20048;-80
2022/06/22 02:47:17;;;;;;;1.80;1.70;;;;;;;12.82;72.89;101207.31;5055021;28;20028;-80
2022/06/22 02:49:52;;;;;;;2.30;1.83;;;;;;;12.80;72.69;101206.50;5054589;28;20032;-81
2022/06/22 02:52:21;;;;;;;1.90;1.80;;;;;;;12.81;73.16;101213.41;5035548;28;20021;-80
2022/06/22 02:54:55;;;;;;;1.90;1.80;;;;;;;12.80;73.09;101214.31;5034003;28;20038;-80
2022/06/22 02:57:44;;;;;;;2.20;2.08;;;;;;;12.79;73.23;101209.09;5034144;28;20029;-80
2022/06/22 03:00:10;;;;;;;1.80;1.70;;;;;;;12.79;74.11;101209.97;5035158;28;20112;-80
2022/06/22 03:02:36;;;;;;;2.00;1.90;;;;;;;12.78;73.06;101213.47;5034274;28;20060;-80
2022/06/22 03:05:05;;;;;;;2.00;1.90;;;;;;;12.77;73.34;101221.31;5034998;28;20034;-80
2022/06/22 03:07:31;;;;;;;2.05;1.95;;;;;;;12.76;73.41;101225.66;5035108;28;20037;-81
2022/06/22 03:09:57;;;;;;;3.00;1.90;;;;;;;12.74;73.21;101223.97;5034213;28;20086;-81
2022/06/22 03:12:23;;;;;;;2.25;2.10;;;;;;;12.73;73.28;101225.69;5034215;28;20041;-81
2022/06/22 03:14:52;;;;;;;2.23;2.03;;;;;;;12.70;73.30;101227.50;5034347;28;20108;-81
2022/06/22 03:17:22;;;;;;;2.00;1.90;;;;;;;12.69;73.19;101223.19;5034146;28;20076;-81
2022/06/22 03:20:11;;;;;;;2.40;2.20;;;;;;;12.66;72.92;101226.72;5045610;28;20507;-80
2022/06/22 03:22:44;;;;;;;2.40;2.20;;;;;;;12.65;73.29;101222.38;5053575;28;20051;-81
2022/06/22 03:25:34;;;;;;;2.97;2.40;;;;;;;12.62;73.29;101212.88;5054373;28;20078;-80
2022/06/22 03:28:03;;;;;;;3.45;2.30;;;;;;;12.60;73.19;101213.81;5053325;28;20045;-80
2022/06/22 03:30:36;;;;;;;2.38;2.17;;;;;;;12.57;73.51;101209.50;5053276;28;20393;-81
2022/06/22 03:33:06;;;;;;;2.40;2.20;;;;;;;12.55;73.71;101206.09;5053692;28;20025;-81
2022/06/22 03:35:35;;;;;;;2.50;2.15;;;;;;;12.55;73.65;101207.81;5054084;28;20030;-80
2022/06/22 03:38:15;;;;;;;2.10;2.00;;;;;;;12.52;73.77;101206.97;5050778;28;20025;-80
2022/06/22 03:40:50;;;;;;;2.25;2.05;;;;;;;12.50;73.58;101208.75;5034684;28;20030;-81
2022/06/22 03:43:21;;;;;;;2.38;2.17;;;;;;;12.50;73.88;101206.13;5035618;28;20545;-81
2022/06/22 03:45:53;;;;;;;2.28;2.08;;;;;;;12.51;74.54;101207.84;5034009;28;20065;-81
2022/06/22 03:48:30;;;;;;;2.28;2.00;;;;;;;12.51;74.12;101197.44;5033868;28;20025;-81
2022/06/22 03:51:22;;;;;;;1.90;1.80;;;;;;;12.51;74.19;101192.25;5033569;28;20036;-81
2022/06/22 03:54:23;;;;;;;2.20;2.00;;;;;;;12.51;74.05;101189.63;5033882;28;20025;-81
2022/06/22 03:56:53;;;;;;;2.20;2.00;;;;;;;12.52;74.24;101190.50;5026514;28;20041;-81
2022/06/22 03:59:19;;;;;;;2.15;2.05;;;;;;;12.50;73.79;101193.13;5052767;28;20040;-81
2022/06/22 04:01:44;;;;;;;2.80;2.20;;;;;;;12.51;74.33;101192.25;5053463;28;20025;-81
2022/06/22 04:04:10;;;;;;;2.30;2.10;;;;;;;12.51;74.44;101188.78;5054216;28;20083;-81
2022/06/22 04:06:43;;;;;;;2.20;2.00;;;;;;;12.50;74.83;101190.50;5052878;28;20473;-81
2022/06/22 04:09:18;;;;;;;2.00;1.85;;;;;;;12.54;74.41;101191.34;5054015;28;20469;-81
2022/06/22 04:11:56;;;;;;;2.83;2.20;;;;;;;12.55;75.45;101185.25;5052783;28;20482;-81
2022/06/22 04:14:39;;;;;;;2.00;1.90;;;;;;;12.56;74.61;101188.69;5050950;28;20053;-81
2022/06/22 04:17:28;;;;;;;2.63;2.15;;;;;;;12.57;74.80;101188.66;5033519;28;20113;-81
2022/06/22 04:20:49;;;;;;;2.13;2.00;;;;;;;12.61;74.79;101205.13;5013936;28;20488;-81
2022/06/22 04:23:13;;;;;;;2.05;1.95;;;;;;;12.60;75.05;101200.78;5044803;28;20128;-81
2022/06/22 04:25:39;;;;;;;2.00;1.90;;;;;;;12.64;75.44;101197.22;5051248;28;20527;-81
2022/06/22 04:28:08;;;;;;;2.00;1.90;;;;;;;12.66;75.04;101200.66;5053074;28;20024;-81
2022/06/22 04:30:41;;;;;;;2.00;1.90;;;;;;;12.67;76.40;101195.41;5053684;28;20031;-81
2022/06/22 04:33:24;;;;;;;1.70;1.60;;;;;;;12.71;75.77;101211.00;5052230;28;20025;-81
2022/06/22 04:36:01;;;;;;;2.45;2.20;;;;;;;12.73;76.58;101212.69;5052786;28;20071;-81
2022/06/22 04:38:35;;;;;;;1.85;1.75;;;;;;;12.76;76.01;101223.03;5052659;28;20033;-81
2022/06/22 04:41:22;;;;;;;4.55;2.70;;;;;;;12.77;77.75;101224.75;5052102;28;20036;-80
2022/06/22 04:43:49;;;;;;;2.78;2.30;;;;;;;12.81;77.05;101212.53;5044906;28;20025;-81
2022/06/22 04:46:22;;;;;;;3.40;2.70;;;;;;;12.85;78.19;101211.59;5052826;28;20029;-81
2022/06/22 04:48:49;;;;;;;2.67;2.42;;;;;;;12.86;77.10;101215.06;5044141;28;20029;-81
2022/06/22 04:51:27;;;;;;;4.03;3.30;;;;;;;12.91;79.22;101221.06;5053196;28;20074;-81
2022/06/22 04:53:57;;;;;;;3.60;2.83;;;;;;;12.95;78.78;101220.97;5051608;28;20532;-81
2022/06/22 04:56:31;;;;;;;3.58;2.90;;;;;;;12.98;78.70;101222.63;5052533;28;20032;-81
2022/06/22 04:58:59;;;;;;;2.80;2.60;;;;;;;12.99;77.65;101221.75;5052370;28;20152;-81
2022/06/22 05:01:33;;;;;;;2.58;2.38;;;;;;;13.05;77.53;101226.00;5052016;28;20151;-81
2022/06/22 05:04:05;;;;;;;2.50;2.30;;;;;;;13.10;79.11;101229.38;5052502;28;20067;-81
2022/06/22 05:06:58;;;;;;;3.35;2.80;;;;;;;13.16;79.40;101231.00;5053158;28;20036;-81
2022/06/22 05:09:33;;;;;;;4.93;3.75;;;;;;;13.21;79.97;101235.22;5051930;28;20024;-80
2022/06/22 05:12:00;;;;;;;3.58;3.03;;;;;;;13.26;78.55;101230.78;5052076;28;20527;-81
2022/06/22 05:14:28;;;;;;;2.80;2.60;;;;;;;13.32;79.33;101244.59;5052666;28;20384;-82
2022/06/22 05:17:00;;;;;;;2.55;2.35;;;;;;;13.36;78.16;101244.47;5051800;28;20441;-82
2022/06/22 05:19:39;;;;;;;3.70;2.88;;;;;;;13.41;79.27;101242.66;5052079;28;20033;-82
2022/06/22 05:22:12;;;;;;;3.53;2.85;;;;;;;13.46;79.12;101250.38;5051800;28;20099;-82
2022/06/22 05:24:39;;;;;;;2.92;2.63;;;;;;;13.52;79.37;101247.66;5052704;28;20056;-80
2022/06/22 05:27:08;;;;;;;2.80;2.50;;;;;;;13.58;79.56;101246.69;5053347;28;20025;-82
2022/06/22 05:29:39;;;;;;;5.13;3.30;;;;;;;13.64;79.25;101243.06;5051196;28;20572;-82
2022/06/22 05:32:14;;;;;;;3.13;2.70;;;;;;;13.70;78.91;101246.41;5052485;28;20473;-82
2022/06/22 05:34:44;;;;;;;3.60;2.95;;;;;;;13.76;80.55;101258.47;5052384;28;20048;-82
2022/06/22 05:37:12;;;;;;;4.20;3.33;;;;;;;13.81;80.06;101255.75;5051610;28;20473;-82
2022/06/22 05:39:40;;;;;;;3.88;3.30;;;;;;;13.86;78.46;101249.53;5044808;28;20112;-81
2022/06/22 05:42:08;;;;;;;4.60;3.17;;;;;;;13.90;78.12;101248.56;5032350;28;20037;-80
2022/06/22 05:44:33;;;;;;;4.05;3.20;;;;;;;13.97;79.88;101248.44;5031107;28;20083;-81
2022/06/22 05:47:02;;;;;;;3.10;2.80;;;;;;;14.05;78.20;101260.41;5031694;28;20432;-81
2022/06/22 05:49:38;;;;;;;3.10;2.60;;;;;;;14.10;78.34;101251.59;5051642;28;20032;-81
2022/06/22 05:52:36;;;;;;;2.33;2.13;;;;;;;14.18;78.00;101247.09;5055375;28;20037;-81
2022/06/22 05:55:28;;;;;;;6.95;4.15;;;;;;;14.26;79.58;101247.75;5056040;28;20052;-78
2022/06/22 05:58:03;;;;;;;4.97;3.80;;;;;;;14.33;79.29;101264.13;5055265;28;20025;-80
2022/06/22 06:00:42;;;;;;;4.03;3.13;;;;;;;14.41;78.93;101270.00;5040138;28;20033;-81
2022/06/22 06:03:13;;;;;;;4.07;2.78;;;;;;;14.64;78.19;101276.41;5036020;28;20021;-80
2022/06/22 06:05:43;;;;;;;4.00;3.00;;;;;;;15.01;77.59;101280.72;5034570;28;20034;-81
2022/06/22 06:08:18;;;;;;;5.47;3.72;;;;;;;16.06;78.64;101285.53;5045962;28;20436;-81
2022/06/22 06:10:44;;;;;;;4.47;3.00;;;;;;;17.63;75.59;101281.97;5055607;28;20029;-81
2022/06/22 06:13:18;;;;;;;7.43;4.40;;;;;;;18.89;72.40;101283.94;5055112;28;20043;-81
2022/06/22 06:15:46;;;;;;;4.18;3.03;;;;;;;19.56;71.20;101289.78;5053189;28;20063;-81
2022/06/22 06:18:16;;;;;;;2.70;2.50;;;;;;;20.05;68.66;101293.69;5055952;28;20037;-80
2022/06/22 06:20:46;;;;;;;3.85;3.30;;;;;;;20.26;65.19;101297.06;5055055;28;20037;-81
2022/06/22 06:23:23;;;;;;;5.10;3.15;;;;;;;20.05;66.17;101296.31;5055299;28;20509;-81
2022/06/22 06:28:59;;;;;;;3.55;3.00;;;;;;;20.14;65.12;101289.75;5055343;28;20436;-81
2022/06/22 06:31:31;;;;;;;3.70;3.10;;;;;;;20.33;65.34;101280.00;5055598;28;20033;-81
2022/06/22 06:33:58;;;;;;;4.55;3.50;;;;;;;20.49;63.96;101284.53;5054401;28;20036;-83
2022/06/22 06:36:28;;;;;;;7.93;4.22;;;;;;;20.56;62.67;101283.28;5055149;28;20021;-83
2022/06/22 06:38:59;;;;;;;5.78;3.80;;;;;;;20.63;62.56;101283.81;5054725;28;20029;-81
2022/06/22 06:41:44;;;;;;;4.60;3.50;;;;;;;20.68;61.49;101290.56;5048743;28;20025;-83
2022/06/22 06:44:22;;;;;;;4.28;3.22;;;;;;;20.75;62.52;101296.41;5037494;28;20390;-84
2022/06/22 06:46:58;;;;;;;4.55;3.40;;;;;;;20.88;61.68;101280.81;5052398;28;20033;-83
2022/06/22 06:49:37;;;;;;;;;;;;;;;20.81;59.14;101274.16;5041708;28;20026;-83
2022/06/22 06:52:21;;;;;;;5.00;3.63;;;;;;;20.71;61.08;101265.84;5035071;28;20334;-85
2022/06/22 06:54:56;;;;;;;6.18;4.03;;;;;;;20.71;60.86;101260.56;5052692;28;20428;-83
2022/06/22 06:57:22;;;;;;;8.52;4.85;;;;;;;20.63;61.08;101268.00;5046343;28;20041;-83
2022/06/22 06:59:57;;;;;;;;;;;;;;;20.63;61.19;101250.41;5029493;28;20029;-83
2022/06/22 07:02:32;;;;;;;10.57;6.45;;;;;;;20.49;60.42;101256.38;5013145;28;19956;-83
2022/06/22 07:05:00;;;;;;;6.97;4.03;;;;;;;20.44;61.07;101254.88;5030297;28;20556;-83
2022/06/22 07:07:47;;;;;;;4.45;3.30;;;;;;;20.56;61.44;101249.00;5033190;28;20032;-83
2022/06/22 07:10:30;;;;;;;11.40;5.55;;;;;;;20.44;57.94;101247.84;5033892;28;20041;-83
2022/06/22 07:13:01;;;;;;;10.95;5.90;;;;;;;20.32;58.91;101245.81;5034919;28;20381;-84
2022/06/22 07:15:35;;;;;;;7.05;4.43;;;;;;;20.33;60.24;101250.19;5030881;28;20025;-83
2022/06/22 07:18:14;;;;;;;4.90;3.50;;;;;;;20.44;61.01;101249.63;5022932;28;20060;-83
2022/06/22 07:20:44;;;;;;;4.00;2.80;;;;;;;20.66;60.46;101249.38;5034185;28;20030;-83
2022/06/22 07:23:20;;;;;;;3.67;3.00;;;;;;;20.79;60.19;101239.94;5033389;28;20064;-84
2022/06/22 07:25:48;;;;;;;;;;;;;;;20.85;58.13;101240.53;5034257;28;20029;-84
2022/06/22 07:28:24;;;;;;;3.85;3.05;;;;;;;20.82;59.24;101244.19;5034016;28;19995;-84
2022/06/22 07:31:06;;;;;;;3.70;2.67;;;;;;;20.90;59.77;101242.00;5032479;28;20087;-84
2022/06/22 07:33:40;;;;;;;2.65;2.45;;;;;;;21.01;59.73;101225.63;5033468;28;20030;-84
2022/06/22 07:36:14;;;;;;;2.55;2.35;;;;;;;21.08;60.02;101224.34;5031557;28;20021;-77
2022/06/22 07:38:58;;;;;;;2.78;2.30;;;;;;;21.06;59.78;101218.28;5033922;28;20029;-83
2022/06/22 07:41:25;;;;;;;2.40;2.20;;;;;;;21.00;59.95;101215.16;5034101;28;20053;-83
2022/06/22 07:43:55;;;;;;;;;;;;;;;20.90;59.07;101217.44;5033417;28;20035;-83
2022/06/22 07:46:48;;;;;;;4.45;2.90;;;;;;;20.80;59.63;101224.97;5032838;28;19924;-83
2022/06/22 07:49:26;;;;;;;2.83;2.15;;;;;;;20.84;60.38;101231.78;5033146;28;20450;-83
2022/06/22 07:51:54;;;;;;;2.58;2.38;;;;;;;20.91;59.41;101240.25;5031465;28;20478;-83
2022/06/22 07:54:41;;;;;;;2.20;2.00;;;;;;;20.91;59.36;101237.59;5033730;28;20085;-83
2022/06/22 07:57:13;;;;;;;1.90;1.80;;;;;;;20.89;60.05;101231.53;5033047;28;20080;-81
2022/06/22 07:59:48;;;;;;;2.60;2.40;;;;;;;20.80;58.90;101231.09;5033163;28;20033;-80
2022/06/22 08:02:18;;;;;;;2.50;2.30;;;;;;;20.71;59.26;101238.59;5033221;28;20028;-82
2022/06/22 08:04:59;;;;;;;1.88;1.77;;;;;;;20.68;60.27;101236.97;5032479;28;20052;-77
2022/06/22 08:07:33;;;;;;;3.00;2.53;;;;;;;20.64;59.88;101240.69;5032577;28;20410;-77
2022/06/22 08:10:08;;;;;;;2.65;2.20;;;;;;;20.59;59.68;101227.75;5033065;28;20057;-78
2022/06/22 08:12:58;;;;;;;2.28;2.08;;;;;;;20.57;59.79;101237.53;5031429;28;20024;-78
2022/06/22 08:15:24;;;;;;;1.92;1.83;;;;;;;20.51;60.08;101243.97;5033637;28;20030;-82
2022/06/22 08:17:53;;;;;;;1.90;1.80;;;;;;;20.58;59.96;101243.66;5032209;28;20033;-81
2022/06/22 08:20:26;;;;;;;2.08;1.88;;;;;;;20.77;59.78;101238.34;5033259;28;20021;-82
2022/06/22 08:22:53;;;;;;;6.63;3.30;;;;;;;20.93;59.01;101241.84;5042066;28;20116;-82
2022/06/22 08:25:21;;;;;;;3.25;2.80;;;;;;;21.12;59.01;101243.50;5052634;28;20029;-82
2022/06/22 08:27:47;;;;;;;2.40;2.20;;;;;;;21.26;58.52;101243.63;5052708;28;20124;-82
2022/06/22 08:30:14;;;;;;;2.50;2.30;;;;;;;21.51;57.28;101250.22;5052645;28;20024;-76
2022/06/22 08:32:52;;;;;;;2.60;2.28;;;;;;;21.69;57.82;101253.66;5051958;28;20474;-82
2022/06/22 08:35:36;;;;;;;3.30;2.20;;;;;;;21.82;54.74;101255.63;5052907;28;20040;-81
2022/06/22 08:38:07;;;;;;;3.58;2.28;;;;;;;21.94;53.05;101254.06;5052842;28;20079;-83
2022/06/22 08:40:44;;;;;;;5.00;2.45;;;;;;;22.05;49.26;101252.50;5052009;28;20406;-82
2022/06/22 08:43:18;;;;;;;;;;;;;;;22.02;50.19;101257.09;5053534;28;20039;-82
2022/06/22 08:46:11;;;;;;;5.78;3.25;;;;;;;21.97;50.78;101260.00;5052655;28;19912;-83
2022/06/22 08:49:00;;;;;;;6.43;3.40;;;;;;;21.89;48.13;101257.81;5045626;28;20120;-82
2022/06/22 08:51:52;;;;;;;3.90;2.63;;;;;;;21.97;50.83;101252.06;5052290;28;20454;-83
2022/06/22 08:54:29;;;;;;;2.58;2.20;;;;;;;22.17;51.88;101253.59;5051873;28;20104;-83
2022/06/22 08:57:09;;;;;;;6.20;3.00;;;;;;;22.29;47.08;101259.09;5052546;28;20031;-83
2022/06/22 08:59:49;;;;;;;7.85;3.60;;;;;;;22.06;48.67;101250.72;5050911;28;20072;-83
2022/06/22 09:02:14;;;;;;;5.90;3.28;;;;;;;22.08;49.18;101245.31;5052178;28;20431;-82
2022/06/22 09:05:10;;;;;;;7.60;3.53;;;;;;;22.05;49.69;101243.72;5052368;28;20028;-83
2022/06/22 09:07:38;;;;;;;;;;;;;;;22.15;47.51;101238.75;5052514;28;20056;-82
2022/06/22 09:10:22;;;;;;;4.28;2.80;;;;;;;22.32;49.13;101241.25;5052444;28;19912;-83
2022/06/22 09:12:59;;;;;;;6.85;3.20;;;;;;;22.47;48.13;101243.97;5052599;28;20021;-83
2022/06/22 09:15:55;;;;;;;4.57;2.70;;;;;;;22.61;49.90;101249.31;5051918;28;20108;-83
2022/06/22 09:18:36;;;;;;;5.65;3.08;;;;;;;22.69;47.49;101240.88;5052750;28;20036;-82
2022/06/22 09:21:29;;;;;;;5.38;3.00;;;;;;;22.67;45.54;101256.88;5051596;28;20108;-83
2022/06/22 09:23:55;;;;;;;6.10;3.20;;;;;;;22.49;46.51;101264.09;5052957;28;20049;-82
2022/06/22 09:27:05;;;;;;;3.60;2.70;;;;;;;22.56;47.87;101259.28;5056023;28;20140;-82
2022/06/22 09:29:49;;;;;;;4.13;2.30;;;;;;;22.85;46.41;101254.06;5055633;28;20029;-80
2022/06/22 09:32:39;;;;;;;4.93;2.78;;;;;;;23.00;47.72;101252.28;5056658;28;20021;-82
2022/06/22 09:35:33;;;;;;;3.47;2.10;;;;;;;23.28;48.27;101269.09;5055653;28;20033;-83
2022/06/22 09:38:35;;;;;;;2.55;1.92;;;;;;;23.58;47.65;101268.97;5053879;28;20043;-82
2022/06/22 09:41:05;;;;;;;3.47;2.55;;;;;;;23.55;45.31;101261.22;5056197;28;20024;-82
2022/06/22 09:43:57;;;;;;;5.25;2.70;;;;;;;23.48;44.67;101267.00;5055792;28;20565;-82
2022/06/22 09:46:32;;;;;;;6.25;2.80;;;;;;;23.35;43.73;101265.16;5055820;28;20079;-82
2022/06/22 09:49:15;;;;;;;2.88;2.10;;;;;;;23.50;44.79;101270.41;5056037;28;20032;-83
2022/06/22 09:52:00;;;;;;;1.90;1.80;;;;;;;23.72;45.07;101267.25;5055766;28;20052;-82
2022/06/22 09:58:07;;;;;;;3.72;2.00;;;;;;;24.11;44.47;101262.97;5055121;28;20036;-85
2022/06/22 10:00:57;;;;;;;3.25;1.90;;;;;;;24.34;39.44;101265.88;5051281;28;20033;-81
2022/06/22 10:03:49;;;;;;;3.35;2.10;;;;;;;24.33;40.17;101264.19;5048860;28;20032;-81
2022/06/22 10:06:33;;;;;;;2.95;2.30;;;;;;;24.22;42.40;101259.63;5036805;28;20037;-80
2022/06/22 10:09:07;;;;;;;4.22;2.08;;;;;;;24.16;42.55;101250.25;5034449;28;20083;-81
2022/06/22 10:11:51;;;;;;;2.33;2.00;;;;;;;24.34;41.74;101249.97;5034061;28;20410;-81
2022/06/22 10:14:54;;;;;;;1.92;1.70;;;;;;;24.48;43.27;101255.19;5035003;28;20478;-80
2022/06/22 10:17:43;;;;;;;1.63;1.52;;;;;;;24.78;42.49;101245.28;5034764;28;20445;-81
2022/06/22 10:20:20;;;;;;;6.32;2.60;;;;;;;24.56;39.57;101251.16;5035382;28;20040;-81
2022/06/22 10:23:04;;;;;;;4.80;2.30;;;;;;;24.39;41.54;101247.00;5041081;28;20077;-81
2022/06/22 10:25:58;;;;;;;2.20;2.00;;;;;;;24.61;41.95;101235.78;5054720;28;20060;-81
2022/06/22 10:28:40;;;;;;;2.42;1.50;;;;;;;24.97;40.07;101234.22;5054943;28;20029;-81
2022/06/22 10:31:24;;;;;;;2.72;1.90;;;;;;;25.18;39.62;101221.22;5054126;28;20386;-83
2022/06/22 10:34:27;;;;;;;4.10;2.10;;;;;;;25.19;39.18;101230.06;5055135;28;20024;-83
2022/06/22 10:37:17;;;;;;;2.55;1.85;;;;;;;25.36;39.91;101228.84;5054881;28;20036;-83
2022/06/22 10:46:29;;;;;;;3.22;2.10;;;;;;;24.86;37.71;101213.72;5053431;28;20446;-80
2022/06/22 10:49:13;;;;;;;2.83;2.05;;;;;;;25.00;38.46;101215.41;5054426;28;20107;-79
2022/06/22 10:52:05;;;;;;;1.92;1.65;;;;;;;25.24;39.44;101206.66;5054372;28;20127;-80
2022/06/22 10:54:57;;;;;;;1.67;1.58;;;;;;;25.52;35.00;101213.50;5047481;28;20037;-80
2022/06/22 10:58:03;;;;;;;4.53;2.40;;;;;;;25.58;35.72;101215.72;5054260;28;20029;-80
2022/06/22 11:00:45;;;;;;;3.88;2.10;;;;;;;25.70;38.07;101221.09;5052389;28;20037;-79
2022/06/22 11:03:15;;;;;;;3.22;2.00;;;;;;;25.92;39.28;101215.03;5053604;28;20554;-80
2022/06/22 11:05:47;;;;;;;2.90;1.90;;;;;;;26.11;36.98;101221.66;5053756;28;20477;-80
2022/06/22 11:08:46;;;;;;;3.08;1.63;;;;;;;26.16;37.93;101212.38;5053646;28;20389;-79
2022/06/22 11:11:38;;;;;;;2.55;1.60;;;;;;;26.35;38.45;101210.97;5054525;28;20072;-80
2022/06/22 11:14:35;;;;;;;1.48;1.38;;;;;;;26.58;37.71;101221.66;5052912;28;20079;-80
2022/06/22 11:17:14;;;;;;;2.22;1.70;;;;;;;26.70;36.67;101223.34;5054080;28;20029;-80
2022/06/22 11:20:07;;;;;;;2.78;1.70;;;;;;;26.77;36.10;101221.06;5053972;28;20029;-81
2022/06/22 11:22:41;;;;;;;1.38;1.27;;;;;;;26.93;36.35;101210.91;5053250;28;20348;-81
2022/06/22 11:30:48;;;;;;;3.15;1.70;;;;;;;27.02;33.93;101206.69;5054515;28;20025;-80
2022/06/22 11:31:58;;;;;;;1.70;1.60;;;;;;;27.15;32.33;101213.69;5052927;28;20467;-80
2022/06/22 11:34:57;;;;;;;5.10;2.42;;;;;;;26.72;33.81;101215.25;5022334;28;20056;-81
2022/06/22 11:38:06;;;;;;;4.35;2.28;;;;;;;26.41;35.34;101212.31;5054262;28;20099;-82
2022/06/22 11:40:43;;;;;;;1.85;1.75;;;;;;;26.68;36.25;101212.81;5054114;28;20162;-82
2022/06/22 11:43:30;;;;;;;1.63;1.52;;;;;;;26.98;36.29;101210.53;5053318;28;20462;-82
2022/06/22 11:46:05;;;;;;;1.55;1.40;;;;;;;27.26;36.74;101219.00;5052615;28;20091;-83
2022/06/22 11:48:57;;;;;;;1.48;1.38;;;;;;;27.52;36.62;101219.59;5033603;28;20050;-82
2022/06/22 11:52:20;;;;;;;1.02;1.02;;;;;;;27.81;34.53;101220.81;5033821;28;20079;-81
2022/06/22 11:54:53;;;;;;;1.60;1.50;;;;;;;27.80;35.07;101224.47;4991834;28;20036;-81
2022/06/22 11:57:24;;;;;;;2.63;1.95;;;;;;;27.63;32.69;101224.06;4991556;28;20030;-81
2022/06/22 12:00:20;;;;;;;1.90;1.60;;;;;;;27.66;34.82;101218.44;5034283;28;20040;-81
2022/06/22 12:03:23;;;;;;;2.30;1.65;;;;;;;27.68;33.15;101205.84;5048924;28;20025;-81
2022/06/22 12:06:16;;;;;;;1.60;1.50;;;;;;;27.92;31.86;101217.28;5044511;28;20025;-82
2022/06/22 12:09:02;;;;;;;2.65;1.88;;;;;;;27.59;31.51;101212.75;5038893;28;20048;-81
2022/06/22 12:11:47;;;;;;;1.70;1.60;;;;;;;27.64;32.30;101214.22;5042667;28;20028;-82
2022/06/22 12:17:32;;;;;;;3.08;1.67;;;;;;;28.02;30.11;101207.53;5032801;28;20076;-81
2022/06/22 12:20:16;;;;;;;1.95;1.58;;;;;;;28.11;29.46;101201.44;5033071;28;20033;-81
2022/06/22 12:23:02;;;;;;;2.22;1.50;;;;;;;28.07;31.71;101202.63;5037838;28;20043;-81
2022/06/22 12:25:53;;;;;;;2.92;1.40;;;;;;;28.05;31.48;101196.56;5050016;28;20025;-82
2022/06/22 12:28:46;;;;;;;2.40;1.70;;;;;;;28.14;30.97;101184.31;5031985;28;20029;-82
2022/06/22 12:31:21;;;;;;;1.30;1.20;;;;;;;28.25;32.78;101183.41;5032775;28;20203;-81
2022/06/22 12:33:53;;;;;;;2.30;1.80;;;;;;;28.12;28.78;101183.59;5024875;28;20026;-82
2022/06/22 12:36:26;;;;;;;2.30;1.48;;;;;;;27.87;31.33;101172.28;5034159;28;20382;-82
2022/06/22 12:39:06;;;;;;;2.83;1.70;;;;;;;27.94;31.25;101173.50;5032013;28;20580;-81
2022/06/22 12:41:50;;;;;;;1.70;1.60;;;;;;;27.98;29.72;101166.06;5033107;28;20029;-81